createdAt,value
2022-11-24T00:00:58.922Z,24.70
2022-11-24T00:01:58.978Z,27.80
2022-11-24T00:02:59.001Z,26.40
2022-11-24T00:03:58.950Z,23.40
2022-11-24T00:04:58.923Z,20.90
2022-11-24T00:05:58.908Z,20.60
2022-11-24T00:06:58.875Z,22.60
2022-11-24T00:07:58.906Z,23.10
2022-11-24T00:08:58.853Z,26.90
2022-11-24T00:09:58.863Z,26.10
2022-11-24T00:10:58.830Z,26.60
2022-11-24T00:11:58.826Z,25.80
2022-11-24T00:12:59.612Z,22.40
2022-11-24T00:13:58.811Z,24.40
2022-11-24T00:14:58.859Z,23.50
2022-11-24T00:15:58.811Z,27.10
2022-11-24T00:16:58.871Z,26.10
2022-11-24T00:18:00.482Z,23.10
2022-11-24T00:18:58.816Z,29.00
2022-11-24T00:19:58.758Z,29.10
2022-11-24T00:20:58.770Z,31.90
2022-11-24T00:21:58.769Z,30.00
2022-11-24T00:22:58.726Z,30.30
2022-11-24T00:23:58.766Z,29.30
2022-11-24T00:24:58.756Z,25.80
2022-11-24T00:25:58.708Z,29.80
2022-11-24T00:26:58.743Z,28.40
2022-11-24T00:27:58.713Z,31.20
2022-11-24T00:28:58.689Z,31.20
2022-11-24T00:29:58.696Z,28.00
2022-11-24T00:30:58.736Z,30.20
2022-11-24T00:31:58.725Z,31.20
2022-11-24T00:32:58.681Z,28.00
2022-11-24T00:33:58.673Z,27.70
2022-11-24T00:34:58.650Z,27.90
2022-11-24T00:35:58.634Z,32.10
2022-11-24T00:36:58.745Z,27.80
2022-11-24T00:37:58.648Z,30.00
2022-11-24T00:38:58.712Z,30.80
2022-11-24T00:39:58.607Z,27.70
2022-11-24T00:40:58.620Z,30.20
2022-11-24T00:41:58.608Z,30.20
2022-11-24T00:42:58.610Z,33.10
2022-11-24T00:43:58.606Z,31.20
2022-11-24T00:44:58.583Z,28.70
2022-11-24T00:45:58.723Z,32.50
2022-11-24T00:46:58.637Z,33.00
2022-11-24T00:47:58.578Z,30.90
2022-11-24T00:48:58.603Z,30.90
2022-11-24T00:49:58.538Z,27.00
2022-11-24T00:50:58.536Z,29.90
2022-11-24T00:51:58.548Z,26.20
2022-11-24T00:52:58.567Z,28.70
2022-11-24T00:53:58.534Z,31.40
2022-11-24T00:54:58.494Z,32.20
2022-11-24T00:55:58.524Z,29.30
2022-11-24T00:56:58.527Z,29.00
2022-11-24T00:57:58.488Z,33.50
2022-11-24T00:58:58.479Z,30.50
2022-11-24T00:59:58.480Z,32.40
2022-11-24T01:00:58.530Z,27.30
2022-11-24T01:01:58.503Z,28.10
2022-11-24T01:02:58.518Z,25.80
2022-11-24T01:03:58.455Z,28.50
2022-11-24T01:04:58.463Z,24.70
2022-11-24T01:05:58.429Z,26.50
2022-11-24T01:06:58.449Z,33.00
2022-11-24T01:07:58.433Z,27.40
2022-11-24T01:08:58.385Z,27.80
2022-11-24T01:09:58.409Z,28.60
2022-11-24T01:10:58.390Z,24.80
2022-11-24T01:11:58.396Z,28.10
2022-11-24T01:12:58.399Z,27.50
2022-11-24T01:13:58.360Z,32.20
2022-11-24T01:14:58.379Z,30.00
2022-11-24T01:15:58.388Z,31.80
2022-11-24T01:16:58.364Z,28.90
2022-11-24T01:17:59.174Z,30.10
2022-11-24T01:18:58.328Z,30.00
2022-11-24T01:19:58.302Z,28.30
2022-11-24T01:20:58.306Z,26.10
2022-11-24T01:21:58.319Z,26.80
2022-11-24T01:22:58.309Z,26.40
2022-11-24T01:23:58.301Z,21.10
2022-11-24T01:24:58.295Z,22.50
2022-11-24T01:25:58.309Z,24.90
2022-11-24T01:26:58.325Z,26.50
2022-11-24T01:27:58.288Z,27.10
2022-11-24T01:28:58.251Z,22.20
2022-11-24T01:29:58.242Z,22.40
2022-11-24T01:30:58.307Z,27.30
2022-11-24T01:31:58.265Z,24.10
2022-11-24T01:32:58.209Z,23.50
2022-11-24T01:33:58.215Z,26.70
2022-11-24T01:34:58.234Z,25.70
2022-11-24T01:35:58.185Z,23.00
2022-11-24T01:36:58.190Z,28.40
2022-11-24T01:37:58.198Z,29.40
2022-11-24T01:38:58.201Z,24.60
2022-11-24T01:40:05.613Z,21.10
2022-11-24T01:40:59.157Z,22.80
2022-11-24T01:41:58.149Z,19.70
2022-11-24T01:42:58.202Z,21.10
2022-11-24T01:43:58.130Z,26.90
2022-11-24T01:44:58.177Z,30.00
2022-11-24T01:45:58.160Z,25.00
2022-11-24T01:46:58.146Z,25.80
2022-11-24T01:47:58.117Z,28.10
2022-11-24T01:48:58.142Z,29.20
2022-11-24T01:49:58.068Z,26.00
2022-11-24T01:50:58.071Z,27.80
2022-11-24T01:51:58.063Z,25.80
2022-11-24T01:52:58.067Z,24.90
2022-11-24T01:53:58.075Z,26.80
2022-11-24T01:54:58.067Z,25.20
2022-11-24T01:55:58.049Z,26.50
2022-11-24T01:56:58.051Z,26.20
2022-11-24T01:57:58.046Z,27.90
2022-11-24T01:58:58.030Z,24.00
2022-11-24T01:59:58.038Z,28.10
2022-11-24T02:00:58.002Z,30.10
2022-11-24T02:01:58.037Z,30.10
2022-11-24T02:02:58.076Z,27.90
2022-11-24T02:03:57.979Z,26.90
2022-11-24T02:04:58.014Z,25.20
2022-11-24T02:05:57.979Z,28.90
2022-11-24T02:06:58.957Z,24.70
2022-11-24T02:07:57.967Z,21.40
2022-11-24T02:08:57.954Z,26.50
2022-11-24T02:09:57.951Z,26.50
2022-11-24T02:10:57.962Z,27.00
2022-11-24T02:11:57.923Z,23.60
2022-11-24T02:12:57.918Z,26.30
2022-11-24T02:13:57.915Z,19.50
2022-11-24T02:14:57.917Z,21.60
2022-11-24T02:15:57.952Z,21.10
2022-11-24T02:16:57.875Z,24.30
2022-11-24T02:17:57.882Z,23.80
2022-11-24T02:18:57.884Z,22.70
2022-11-24T02:19:57.855Z,25.80
2022-11-24T02:20:57.857Z,26.50
2022-11-24T02:21:57.880Z,27.10
2022-11-24T02:22:57.849Z,22.90
2022-11-24T02:23:57.816Z,23.10
2022-11-24T02:24:57.854Z,24.20
2022-11-24T02:25:57.835Z,21.70
2022-11-24T02:26:57.809Z,24.50
2022-11-24T02:27:57.803Z,25.90
2022-11-24T02:28:58.720Z,28.30
2022-11-24T02:30:29.726Z,29.20
2022-11-24T02:30:57.811Z,26.10
2022-11-24T02:31:57.841Z,26.50
2022-11-24T02:32:57.784Z,22.80
2022-11-24T02:33:57.757Z,24.00
2022-11-24T02:34:57.742Z,19.80
2022-11-24T02:35:57.763Z,22.70
2022-11-24T02:36:57.715Z,20.50
2022-11-24T02:37:57.732Z,27.60
2022-11-24T02:38:57.699Z,23.10
2022-11-24T02:39:57.765Z,26.10
2022-11-24T02:40:58.684Z,30.00
2022-11-24T02:41:57.681Z,25.60
2022-11-24T02:42:57.696Z,26.70
2022-11-24T02:43:57.696Z,25.60
2022-11-24T02:44:57.669Z,24.60
2022-11-24T02:45:57.738Z,24.90
2022-11-24T02:46:57.651Z,26.70
2022-11-24T02:47:57.662Z,24.10
2022-11-24T02:48:57.644Z,28.00
2022-11-24T02:49:57.652Z,23.40
2022-11-24T02:50:57.646Z,22.90
2022-11-24T02:51:57.606Z,24.10
2022-11-24T02:52:57.601Z,31.20
2022-11-24T02:53:57.621Z,28.30
2022-11-24T02:54:57.583Z,28.50
2022-11-24T02:55:57.591Z,22.70
2022-11-24T02:56:57.599Z,19.80
2022-11-24T02:57:57.565Z,30.10
2022-11-24T02:58:57.575Z,29.40
2022-11-24T02:59:57.557Z,28.00
2022-11-24T03:00:57.553Z,30.40
2022-11-24T03:01:57.610Z,26.50
2022-11-24T03:02:57.594Z,23.20
2022-11-24T03:03:57.541Z,27.40
2022-11-24T03:04:57.527Z,24.60
2022-11-24T03:05:57.533Z,23.30
2022-11-24T03:06:57.513Z,26.00
2022-11-24T03:07:57.522Z,24.00
2022-11-24T03:08:57.484Z,21.70
2022-11-24T03:09:57.509Z,26.60
2022-11-24T03:10:57.523Z,26.50
2022-11-24T03:11:57.456Z,28.80
2022-11-24T03:12:57.454Z,25.30
2022-11-24T03:13:57.472Z,30.70
2022-11-24T03:14:57.449Z,24.00
2022-11-24T03:15:57.570Z,21.60
2022-11-24T03:16:57.434Z,26.10
2022-11-24T03:17:57.441Z,27.20
2022-11-24T03:18:57.403Z,30.20
2022-11-24T03:20:03.091Z,26.50
2022-11-24T03:20:59.384Z,29.90
2022-11-24T03:21:57.392Z,29.70
2022-11-24T03:22:57.394Z,28.60
2022-11-24T03:23:57.394Z,32.60
2022-11-24T03:24:57.405Z,27.70
2022-11-24T03:25:57.362Z,29.40
2022-11-24T03:26:57.358Z,28.00
2022-11-24T03:27:57.361Z,28.40
2022-11-24T03:28:57.391Z,24.90
2022-11-24T03:29:57.362Z,26.80
2022-11-24T03:30:57.471Z,34.30
2022-11-24T03:31:57.326Z,31.50
2022-11-24T03:32:57.306Z,30.20
2022-11-24T03:33:57.306Z,26.60
2022-11-24T03:34:57.295Z,24.40
2022-11-24T03:35:57.281Z,29.60
2022-11-24T03:36:57.306Z,33.10
2022-11-24T03:37:57.261Z,24.60
2022-11-24T03:38:57.252Z,31.30
2022-11-24T03:39:57.261Z,30.20
2022-11-24T03:40:57.232Z,29.80
2022-11-24T03:41:57.250Z,26.90
2022-11-24T03:42:57.238Z,29.20
2022-11-24T03:43:57.294Z,26.20
2022-11-24T03:44:57.198Z,28.50
2022-11-24T03:45:57.325Z,28.20
2022-11-24T03:46:57.185Z,30.90
2022-11-24T03:47:57.205Z,34.20
2022-11-24T04:03:14.691Z,27.50
2022-11-24T04:04:14.576Z,27.40
2022-11-24T04:05:14.572Z,27.90
2022-11-24T04:06:15.686Z,35.50
2022-11-24T04:07:16.353Z,31.20
2022-11-24T04:08:15.696Z,32.50
2022-11-24T04:09:15.655Z,37.00
2022-11-24T04:10:15.655Z,39.90
2022-11-24T04:11:15.686Z,34.80
2022-11-24T04:12:15.669Z,33.40
2022-11-24T04:13:15.657Z,31.00
2022-11-24T04:14:15.756Z,31.10
2022-11-24T04:15:15.686Z,29.90
2022-11-24T04:16:15.732Z,35.30
2022-11-24T04:17:15.793Z,37.10
2022-11-24T04:18:15.601Z,34.80
2022-11-24T04:19:15.601Z,32.00
2022-11-24T04:20:15.617Z,30.30
2022-11-24T04:21:15.591Z,32.60
2022-11-24T04:24:13.200Z,35.90
2022-11-24T04:25:13.212Z,33.90
2022-11-24T04:26:13.382Z,33.60
2022-11-24T04:27:13.204Z,32.80
2022-11-24T04:28:13.186Z,38.80
2022-11-24T04:29:13.251Z,29.70
2022-11-24T04:30:14.306Z,32.30
2022-11-24T04:31:14.380Z,33.10
2022-11-24T04:32:14.272Z,32.90
2022-11-24T04:33:14.304Z,34.10
2022-11-24T04:34:14.496Z,32.50
2022-11-24T04:35:14.263Z,34.10
2022-11-24T04:36:14.403Z,28.30
2022-11-24T04:37:14.234Z,30.60
2022-11-24T04:38:14.227Z,33.90
2022-11-24T04:39:22.972Z,28.20
2022-11-24T04:40:15.250Z,35.00
2022-11-24T04:41:14.232Z,33.70
2022-11-24T04:42:14.268Z,32.10
2022-11-24T04:43:14.244Z,28.40
2022-11-24T04:44:14.187Z,33.90
2022-11-24T04:45:14.194Z,28.40
2022-11-24T04:46:14.301Z,34.50
2022-11-24T04:47:14.188Z,30.80
2022-11-24T04:48:14.158Z,41.90
2022-11-24T04:49:14.188Z,31.20
2022-11-24T04:50:14.163Z,35.70
2022-11-24T04:51:14.168Z,39.30
2022-11-24T04:52:14.146Z,32.50
2022-11-24T04:53:14.184Z,39.40
2022-11-24T04:54:14.149Z,36.60
2022-11-24T04:55:14.096Z,35.70
2022-11-24T04:56:14.088Z,31.60
2022-11-24T04:57:14.166Z,33.20
2022-11-24T04:58:14.076Z,35.00
2022-11-24T04:59:14.123Z,33.30
2022-11-24T05:00:14.078Z,32.50
2022-11-24T05:01:14.138Z,36.70
2022-11-24T05:02:14.098Z,35.00
2022-11-24T05:03:14.042Z,36.30
2022-11-24T05:04:14.119Z,32.50
2022-11-24T05:05:14.034Z,31.30
2022-11-24T05:06:14.052Z,33.60
2022-11-24T05:07:18.302Z,33.10
2022-11-24T05:08:16.037Z,32.00
2022-11-24T05:09:14.094Z,44.70
2022-11-24T05:10:14.039Z,33.60
2022-11-24T05:11:13.991Z,30.50
2022-11-24T05:12:13.971Z,39.20
2022-11-24T05:13:13.955Z,39.30
2022-11-24T05:14:13.966Z,38.40
2022-11-24T05:15:14.009Z,37.70
2022-11-24T05:16:14.076Z,32.00
2022-11-24T05:17:14.061Z,37.80
2022-11-24T05:18:13.995Z,36.40
2022-11-24T05:19:13.955Z,34.30
2022-11-24T05:20:13.983Z,34.40
2022-11-24T05:21:13.928Z,39.30
2022-11-24T05:22:45.916Z,46.50
2022-11-24T05:23:13.900Z,40.90
2022-11-24T05:24:45.843Z,35.80
2022-11-24T05:25:13.886Z,38.10
2022-11-24T05:26:14.001Z,38.00
2022-11-24T05:27:45.961Z,35.30
2022-11-24T05:28:46.246Z,34.40
2022-11-24T05:29:45.807Z,37.50
2022-11-24T05:30:45.783Z,37.90
2022-11-24T05:31:45.877Z,39.20
2022-11-24T05:32:45.721Z,33.70
2022-11-24T05:33:13.809Z,42.50
2022-11-24T05:34:13.796Z,39.60
2022-11-24T05:37:12.051Z,31.50
2022-11-24T05:38:18.531Z,29.20
2022-11-24T05:41:10.287Z,35.40
2022-11-24T05:42:10.288Z,39.40
2022-11-24T05:43:11.433Z,33.30
2022-11-24T05:44:11.428Z,37.80
2022-11-24T05:45:11.474Z,43.60
2022-11-24T05:46:12.115Z,56.90
2022-11-24T05:47:11.371Z,48.50
2022-11-24T05:48:12.420Z,49.20
2022-11-24T05:49:11.351Z,39.00
2022-11-24T05:50:11.367Z,37.00
2022-11-24T05:51:11.350Z,36.80
2022-11-24T05:52:11.371Z,41.60
2022-11-24T05:53:11.377Z,44.60
2022-11-24T05:54:11.339Z,41.30
2022-11-24T05:55:11.342Z,34.40
2022-11-24T05:56:11.362Z,35.10
2022-11-24T05:57:11.297Z,52.00
2022-11-24T05:58:11.726Z,46.40
2022-11-24T05:59:11.387Z,35.70
2022-11-24T06:00:11.570Z,24.90
2022-11-24T06:01:11.290Z,26.70
2022-11-24T06:02:11.471Z,35.30
2022-11-24T06:03:11.389Z,28.50
2022-11-24T06:04:11.258Z,31.90
2022-11-24T06:05:11.261Z,34.00
2022-11-24T06:06:11.259Z,34.40
2022-11-24T06:07:11.268Z,27.70
2022-11-24T06:08:11.209Z,29.80
2022-11-24T06:09:11.232Z,32.50
2022-11-24T06:10:11.218Z,26.60
2022-11-24T06:11:11.210Z,26.20
2022-11-24T06:12:11.247Z,25.80
2022-11-24T06:13:11.247Z,24.30
2022-11-24T06:14:11.740Z,25.90
2022-11-24T06:15:12.169Z,22.30
2022-11-24T06:16:11.218Z,25.40
2022-11-24T06:17:11.148Z,24.10
2022-11-24T06:18:11.149Z,20.90
2022-11-24T06:19:11.129Z,25.50
2022-11-24T06:20:11.135Z,25.00
2022-11-24T06:21:12.067Z,23.90
2022-11-24T06:22:12.116Z,25.90
2022-11-24T06:23:11.181Z,25.10
2022-11-24T06:24:11.207Z,23.50
2022-11-24T06:25:11.085Z,26.20
2022-11-24T06:26:11.118Z,21.50
2022-11-24T06:27:11.109Z,22.00
2022-11-24T06:28:11.106Z,27.60
2022-11-24T06:29:11.054Z,23.90
2022-11-24T06:30:11.045Z,27.80
2022-11-24T06:31:11.061Z,25.40
2022-11-24T06:32:11.035Z,23.50
2022-11-24T06:33:11.095Z,21.10
2022-11-24T06:34:11.049Z,29.30
2022-11-24T06:35:11.022Z,29.30
2022-11-24T06:36:11.009Z,31.30
2022-11-24T06:37:11.009Z,26.30
2022-11-24T06:38:10.997Z,23.10
2022-11-24T06:39:11.266Z,26.30
2022-11-24T06:40:10.977Z,26.80
2022-11-24T06:41:10.969Z,30.00
2022-11-24T06:42:10.981Z,26.80
2022-11-24T06:43:10.956Z,29.70
2022-11-24T06:44:10.966Z,34.70
2022-11-24T06:45:10.934Z,34.50
2022-11-24T06:46:10.993Z,29.20
2022-11-24T06:47:10.909Z,27.80
2022-11-24T06:48:10.917Z,29.20
2022-11-24T06:49:10.928Z,30.00
2022-11-24T06:50:10.891Z,24.60
2022-11-24T06:51:10.875Z,27.10
2022-11-24T06:52:10.871Z,36.80
2022-11-24T06:53:10.879Z,45.60
2022-11-24T06:54:10.858Z,29.30
2022-11-24T06:55:10.907Z,34.10
2022-11-24T06:56:16.100Z,41.20
2022-11-24T06:57:12.846Z,53.00
2022-11-24T06:58:10.856Z,55.00
2022-11-24T06:59:10.816Z,89.90
2022-11-24T07:00:10.828Z,91.50
2022-11-24T07:01:10.854Z,85.80
2022-11-24T07:02:10.919Z,91.30
2022-11-24T07:03:10.893Z,68.50
2022-11-24T07:04:10.794Z,67.40
2022-11-24T07:05:10.763Z,57.90
2022-11-24T07:06:10.770Z,44.80
2022-11-24T07:07:10.818Z,46.20
2022-11-24T07:08:16.170Z,41.00
2022-11-24T07:09:12.766Z,48.10
2022-11-24T07:10:10.769Z,52.40
2022-11-24T07:11:10.719Z,62.50
2022-11-24T07:12:10.775Z,51.10
2022-11-24T07:13:10.721Z,47.00
2022-11-24T07:14:10.697Z,44.70
2022-11-24T07:15:10.704Z,49.00
2022-11-24T07:16:10.739Z,34.20
2022-11-24T07:17:10.700Z,37.20
2022-11-24T07:18:10.656Z,32.90
2022-11-24T07:19:10.693Z,39.30
2022-11-24T07:20:10.671Z,28.30
2022-11-24T07:21:10.636Z,40.90
2022-11-24T07:22:10.675Z,30.70
2022-11-24T07:23:42.586Z,34.30
2022-11-24T07:24:10.613Z,30.60
2022-11-24T07:25:10.633Z,24.90
2022-11-24T07:26:10.644Z,39.10
2022-11-24T07:27:10.656Z,30.70
2022-11-24T07:28:10.595Z,40.10
2022-11-24T07:29:10.666Z,28.70
2022-11-24T07:30:10.592Z,34.20
2022-11-24T07:31:11.403Z,30.80
2022-11-24T07:32:10.726Z,33.30
2022-11-24T07:33:10.571Z,26.20
2022-11-24T07:34:10.613Z,26.70
2022-11-24T07:35:10.571Z,30.70
2022-11-24T07:36:10.550Z,27.90
2022-11-24T07:37:11.603Z,27.00
2022-11-24T07:38:10.555Z,34.30
2022-11-24T07:39:10.510Z,26.30
2022-11-24T07:40:10.513Z,31.80
2022-11-24T07:41:10.495Z,30.00
2022-11-24T07:42:10.538Z,38.60
2022-11-24T07:43:12.558Z,33.60
2022-11-24T07:44:36.682Z,33.60
2022-11-24T07:45:10.467Z,31.60
2022-11-24T07:46:10.739Z,34.80
2022-11-24T07:47:10.540Z,33.80
2022-11-24T07:48:10.512Z,35.80
2022-11-24T07:49:10.430Z,30.40
2022-11-24T07:50:10.465Z,34.50
2022-11-24T07:51:10.426Z,35.70
2022-11-24T07:52:10.425Z,33.30
2022-11-24T07:53:10.426Z,42.80
2022-11-24T07:54:10.400Z,49.70
2022-11-24T07:55:10.405Z,63.00
2022-11-24T07:56:10.392Z,67.70
2022-11-24T07:57:10.390Z,60.20
2022-11-24T07:58:10.378Z,63.00
2022-11-24T07:59:10.380Z,90.60
2022-11-24T08:00:10.359Z,73.90
2022-11-24T08:01:10.384Z,72.30
2022-11-24T08:02:10.370Z,62.70
2022-11-24T08:03:10.402Z,59.40
2022-11-24T08:04:10.445Z,57.10
2022-11-24T08:05:10.301Z,56.90
2022-11-24T08:06:30.048Z,54.80
2022-11-24T08:07:12.340Z,51.50
2022-11-24T08:08:10.319Z,42.80
2022-11-24T08:09:10.264Z,44.40
2022-11-24T08:10:10.274Z,38.60
2022-11-24T08:11:10.279Z,30.10
2022-11-24T08:12:10.348Z,32.60
2022-11-24T08:13:10.270Z,24.80
2022-11-24T08:14:10.238Z,27.70
2022-11-24T08:15:11.325Z,20.90
2022-11-24T08:16:11.325Z,31.30
2022-11-24T08:17:10.276Z,27.70
2022-11-24T08:18:10.249Z,27.30
2022-11-24T08:19:10.206Z,25.30
2022-11-24T08:20:10.200Z,27.60
2022-11-24T08:21:10.175Z,24.30
2022-11-24T08:22:10.302Z,25.40
2022-11-24T08:23:10.209Z,27.70
2022-11-24T08:24:10.167Z,27.50
2022-11-24T08:25:10.158Z,28.80
2022-11-24T08:26:10.277Z,25.20
2022-11-24T08:27:10.128Z,21.20
2022-11-24T08:28:10.172Z,24.00
2022-11-24T08:29:10.168Z,27.40
2022-11-24T08:30:10.095Z,25.40
2022-11-24T08:31:10.163Z,22.50
2022-11-24T08:32:10.162Z,30.00
2022-11-24T08:33:10.103Z,22.90
2022-11-24T08:34:10.101Z,22.00
2022-11-24T08:35:13.989Z,27.40
2022-11-24T08:36:11.146Z,15.80
2022-11-24T08:37:10.076Z,27.20
2022-11-24T08:38:10.053Z,21.00
2022-11-24T08:39:10.046Z,21.50
2022-11-24T08:40:10.038Z,19.00
2022-11-24T08:41:10.125Z,20.10
2022-11-24T08:42:10.620Z,18.80
2022-11-24T08:43:10.007Z,25.80
2022-11-24T08:44:10.047Z,23.90
2022-11-24T08:45:20.297Z,17.80
2022-11-24T08:46:12.036Z,21.50
2022-11-24T08:47:09.972Z,16.70
2022-11-24T08:48:09.963Z,21.10
2022-11-24T08:49:10.985Z,19.70
2022-11-24T08:50:09.968Z,19.80
2022-11-24T08:51:09.945Z,16.00
2022-11-24T08:52:10.160Z,23.50
2022-11-24T08:53:09.935Z,15.70
2022-11-24T08:54:09.934Z,17.60
2022-11-24T08:55:10.000Z,18.50
2022-11-24T08:56:09.909Z,20.30
2022-11-24T08:57:09.888Z,23.70
2022-11-24T08:58:09.897Z,20.40
2022-11-24T08:59:09.963Z,17.50
2022-11-24T09:00:09.877Z,17.50
2022-11-24T09:01:09.947Z,16.90
2022-11-24T09:02:09.863Z,15.20
2022-11-24T09:03:09.863Z,14.60
2022-11-24T09:04:09.914Z,18.10
2022-11-24T09:05:43.313Z,19.50
2022-11-24T09:06:11.871Z,19.20
2022-11-24T09:07:09.844Z,18.80
2022-11-24T09:08:09.817Z,19.10
2022-11-24T09:09:09.904Z,20.40
2022-11-24T09:10:09.798Z,21.70
2022-11-24T09:11:09.813Z,17.10
2022-11-24T09:12:14.321Z,19.30
2022-11-24T09:13:10.812Z,20.00
2022-11-24T09:14:09.797Z,17.20
2022-11-24T09:15:09.756Z,19.80
2022-11-24T09:16:09.732Z,17.30
2022-11-24T09:17:09.807Z,24.00
2022-11-24T09:18:09.761Z,16.20
2022-11-24T09:19:09.755Z,19.80
2022-11-24T09:20:09.712Z,16.10
2022-11-24T09:21:09.722Z,17.90
2022-11-24T09:22:09.744Z,22.80
2022-11-24T09:23:09.763Z,21.30
2022-11-24T09:24:09.734Z,19.20
2022-11-24T09:25:09.696Z,23.10
2022-11-24T09:26:09.689Z,21.20
2022-11-24T09:27:09.683Z,18.30
2022-11-24T09:28:09.674Z,17.00
2022-11-24T09:29:09.674Z,21.50
2022-11-24T09:30:09.639Z,18.90
2022-11-24T09:31:09.679Z,19.60
2022-11-24T09:32:09.693Z,21.70
2022-11-24T09:33:09.624Z,21.10
2022-11-24T09:34:09.646Z,23.10
2022-11-24T09:35:09.676Z,30.60
2022-11-24T09:36:09.709Z,21.10
2022-11-24T09:37:09.634Z,16.80
2022-11-24T09:38:09.624Z,22.60
2022-11-24T09:39:09.628Z,23.00
2022-11-24T09:40:09.588Z,25.70
2022-11-24T09:41:09.543Z,23.60
2022-11-24T09:42:09.581Z,25.20
2022-11-24T09:43:09.559Z,22.60
2022-11-24T09:44:09.557Z,26.70
2022-11-24T09:45:09.559Z,28.60
2022-11-24T09:46:09.614Z,22.50
2022-11-24T09:47:09.553Z,26.50
2022-11-24T09:48:09.539Z,23.40
2022-11-24T09:49:09.562Z,25.30
2022-11-24T09:50:09.522Z,22.80
2022-11-24T09:51:09.507Z,26.90
2022-11-24T09:52:09.506Z,24.10
2022-11-24T09:53:09.612Z,18.40
2022-11-24T09:54:09.479Z,27.60
2022-11-24T09:55:09.556Z,22.60
2022-11-24T09:56:09.504Z,18.50
2022-11-24T09:57:09.436Z,23.50
2022-11-24T09:58:09.454Z,24.50
2022-11-24T09:59:09.449Z,23.20
2022-11-24T10:00:09.405Z,23.10
2022-11-24T10:01:09.482Z,26.60
2022-11-24T10:02:09.410Z,25.30
2022-11-24T10:03:09.424Z,23.70
2022-11-24T10:04:09.413Z,28.30
2022-11-24T10:05:09.534Z,28.70
2022-11-24T10:06:09.369Z,20.40
2022-11-24T10:07:09.527Z,20.90
2022-11-24T10:08:09.359Z,25.30
2022-11-24T10:09:09.370Z,26.60
2022-11-24T10:10:09.360Z,28.00
2022-11-24T10:11:09.335Z,20.50
2022-11-24T10:12:09.311Z,30.60
2022-11-24T10:13:09.308Z,22.10
2022-11-24T10:14:09.297Z,20.00
2022-11-24T10:15:09.370Z,19.90
2022-11-24T10:16:09.368Z,26.10
2022-11-24T10:17:09.336Z,16.70
2022-11-24T10:18:14.919Z,20.00
2022-11-24T10:19:11.270Z,18.30
2022-11-24T10:20:09.234Z,22.50
2022-11-24T10:21:09.266Z,18.50
2022-11-24T10:22:09.247Z,19.20
2022-11-24T10:23:09.285Z,18.00
2022-11-24T10:24:09.230Z,22.60
2022-11-24T10:25:09.222Z,22.40
2022-11-24T10:26:09.268Z,18.00
2022-11-24T10:27:09.205Z,22.50
2022-11-24T10:28:09.258Z,20.00
2022-11-24T10:29:09.186Z,20.90
2022-11-24T10:30:09.169Z,18.10
2022-11-24T10:31:09.224Z,19.70
2022-11-24T10:32:09.206Z,19.80
2022-11-24T10:33:09.173Z,18.40
2022-11-24T10:34:09.160Z,16.20
2022-11-24T10:35:09.149Z,17.20
2022-11-24T10:36:09.127Z,10.80
2022-11-24T10:37:09.155Z,15.40
2022-11-24T10:38:09.131Z,19.40
2022-11-24T10:39:09.116Z,8.40
2022-11-24T10:40:17.187Z,12.90
2022-11-24T10:41:10.104Z,11.80
2022-11-24T10:42:09.089Z,13.50
2022-11-24T10:43:09.077Z,14.40
2022-11-24T10:44:09.087Z,12.80
2022-11-24T10:45:09.085Z,9.20
2022-11-24T10:46:09.105Z,11.40
2022-11-24T10:47:09.062Z,13.50
2022-11-24T10:48:09.065Z,13.90
2022-11-24T10:49:09.063Z,13.70
2022-11-24T10:50:09.032Z,14.10
2022-11-24T10:51:09.079Z,17.10
2022-11-24T10:52:09.019Z,15.60
2022-11-24T10:53:09.023Z,18.30
2022-11-24T10:54:08.999Z,17.50
2022-11-24T10:55:08.998Z,16.40
2022-11-24T10:56:08.992Z,18.50
2022-11-24T10:57:40.899Z,18.60
2022-11-24T10:58:08.990Z,16.50
2022-11-24T10:59:09.575Z,18.80
2022-11-24T11:00:08.950Z,15.80
2022-11-24T11:01:09.066Z,13.70
2022-11-24T11:02:09.042Z,19.10
2022-11-24T11:03:09.057Z,19.30
2022-11-24T11:04:08.913Z,18.80
2022-11-24T11:05:08.908Z,18.10
2022-11-24T11:06:08.980Z,16.70
2022-11-24T11:07:08.980Z,14.20
2022-11-24T11:08:08.976Z,13.20
2022-11-24T11:09:08.924Z,16.30
2022-11-24T11:10:08.906Z,17.00
2022-11-24T11:11:08.873Z,20.70
2022-11-24T11:12:35.782Z,20.30
2022-11-24T11:13:10.861Z,17.80
2022-11-24T11:14:08.945Z,9.90
2022-11-24T11:15:40.856Z,16.10
2022-11-24T11:16:40.735Z,18.60
2022-11-24T11:17:40.768Z,15.10
2022-11-24T11:18:40.703Z,11.70
2022-11-24T11:19:50.229Z,16.90
2022-11-24T11:20:09.843Z,13.40
2022-11-24T11:21:40.687Z,21.40
2022-11-24T11:22:08.812Z,17.50
2022-11-24T11:23:08.779Z,16.40
2022-11-24T11:24:08.773Z,13.50
2022-11-24T11:25:08.754Z,14.70
2022-11-24T11:26:08.735Z,14.90
2022-11-24T11:27:08.727Z,15.30
2022-11-24T11:28:11.514Z,14.30
2022-11-24T11:31:16.433Z,14.30
2022-11-24T11:34:19.271Z,19.00
2022-11-24T11:35:10.694Z,16.80
2022-11-24T11:36:08.652Z,21.50
2022-11-24T11:37:08.718Z,13.30
2022-11-24T11:38:08.651Z,16.20
2022-11-24T11:39:08.682Z,14.20
2022-11-24T11:40:09.078Z,12.00
2022-11-24T11:41:08.646Z,16.30
2022-11-24T11:42:08.613Z,14.30
2022-11-24T11:43:09.175Z,17.10
2022-11-24T11:44:08.590Z,15.50
2022-11-24T11:45:08.629Z,11.60
2022-11-24T11:46:08.755Z,22.20
2022-11-24T11:47:08.609Z,20.20
2022-11-24T11:48:08.587Z,30.50
2022-11-24T11:49:08.574Z,20.70
2022-11-24T11:50:08.552Z,16.20
2022-11-24T11:51:22.885Z,19.40
2022-11-24T11:52:10.578Z,15.60
2022-11-24T11:53:08.541Z,11.00
2022-11-24T11:54:08.529Z,13.50
2022-11-24T11:55:08.522Z,12.30
2022-11-24T11:56:08.519Z,10.90
2022-11-24T11:57:08.494Z,15.50
2022-11-24T11:58:08.503Z,15.00
2022-11-24T11:59:08.467Z,16.30
2022-11-24T12:00:08.491Z,17.80
2022-11-24T12:01:08.483Z,19.00
2022-11-24T12:02:08.468Z,12.80
2022-11-24T12:03:08.613Z,13.00
2022-11-24T12:04:08.564Z,12.20
2022-11-24T12:05:08.422Z,12.10
2022-11-24T12:06:08.493Z,12.00
2022-11-24T12:07:08.484Z,15.10
2022-11-24T12:08:10.921Z,14.20
2022-11-24T12:09:20.268Z,13.20
2022-11-24T12:10:10.388Z,11.40
2022-11-24T12:11:08.424Z,13.10
2022-11-24T12:12:08.398Z,14.20
2022-11-24T12:13:08.427Z,13.80
2022-11-24T12:14:08.367Z,11.50
2022-11-24T12:15:11.022Z,12.30
2022-11-24T12:16:09.410Z,12.20
2022-11-24T12:17:08.356Z,13.50
2022-11-24T12:18:21.647Z,10.50
2022-11-24T12:19:10.342Z,6.50
2022-11-24T12:20:08.336Z,10.40
2022-11-24T12:21:08.321Z,9.30
2022-11-24T12:22:08.321Z,10.70
2022-11-24T12:23:08.379Z,12.30
2022-11-24T12:24:42.251Z,15.70
2022-11-24T12:25:08.349Z,13.10
2022-11-24T12:26:41.668Z,12.60
2022-11-24T12:27:08.277Z,13.90
2022-11-24T12:28:08.249Z,11.70
2022-11-24T12:29:08.329Z,12.10
2022-11-24T12:30:08.246Z,14.30
2022-11-24T12:31:08.307Z,13.50
2022-11-24T12:32:08.257Z,9.80
2022-11-24T12:33:09.390Z,17.70
2022-11-24T12:34:08.278Z,10.50
2022-11-24T12:35:08.780Z,14.50
2022-11-24T12:36:08.212Z,17.20
2022-11-24T12:37:08.198Z,15.20
2022-11-24T12:38:08.213Z,13.60
2022-11-24T12:39:08.209Z,14.20
2022-11-24T12:40:10.030Z,13.30
2022-11-24T12:42:10.221Z,11.40
2022-11-24T12:43:08.654Z,16.20
2022-11-24T12:44:08.134Z,17.40
2022-11-24T12:45:08.165Z,10.70
2022-11-24T12:46:11.172Z,10.70
2022-11-24T12:47:10.188Z,11.30
2022-11-24T12:48:08.178Z,9.70
2022-11-24T12:49:08.170Z,13.10
2022-11-24T12:50:08.198Z,15.80
2022-11-24T12:51:08.150Z,13.70
2022-11-24T12:52:08.113Z,13.30
2022-11-24T12:53:08.049Z,9.90
2022-11-24T12:54:08.111Z,10.90
2022-11-24T12:55:08.070Z,11.30
2022-11-24T12:56:08.054Z,13.80
2022-11-24T12:57:08.040Z,12.80
2022-11-24T12:58:11.271Z,13.60
2022-11-24T12:59:09.067Z,13.50
2022-11-24T13:00:08.007Z,14.60
2022-11-24T13:01:13.006Z,12.30
2022-11-24T13:02:10.076Z,10.90
2022-11-24T13:03:08.067Z,6.90
2022-11-24T13:04:08.035Z,10.70
2022-11-24T13:05:08.689Z,11.20
2022-11-24T13:06:07.964Z,13.10
2022-11-24T13:07:09.654Z,13.40
2022-11-24T13:08:07.979Z,10.10
2022-11-24T13:09:08.064Z,11.10
2022-11-24T13:10:07.909Z,11.90
2022-11-24T13:11:08.117Z,12.80
2022-11-24T13:12:08.196Z,12.60
2022-11-24T13:13:07.916Z,12.10
2022-11-24T13:14:07.924Z,13.20
2022-11-24T13:15:07.937Z,12.70
2022-11-24T13:18:12.495Z,8.20
2022-11-24T13:19:08.957Z,9.30
2022-11-24T13:20:07.984Z,14.40
2022-11-24T13:21:07.875Z,9.50